createdAt,value
2018-08-11T00:00:07.017Z,15.50
2018-08-11T00:02:34.868Z,15.40
2018-08-11T00:05:02.855Z,15.40
2018-08-11T00:07:30.764Z,15.70
2018-08-11T00:09:58.626Z,15.50
2018-08-11T00:12:26.576Z,15.40
2018-08-11T00:14:54.556Z,15.40
2018-08-11T00:17:22.491Z,15.60
2018-08-11T00:19:50.388Z,15.80
2018-08-11T00:24:44.115Z,15.90
2018-08-11T00:27:12.095Z,15.80
2018-08-11T00:29:40.097Z,15.70
2018-08-11T00:32:08.164Z,15.70
2018-08-11T00:34:36.175Z,15.60
2018-08-11T00:37:04.300Z,15.50
2018-08-11T00:39:32.960Z,15.50
2018-08-11T00:42:01.052Z,15.50
2018-08-11T00:44:29.153Z,15.50
2018-08-11T00:46:57.380Z,15.40
2018-08-11T00:49:25.262Z,15.40
2018-08-11T00:51:53.071Z,15.40
2018-08-11T00:54:20.860Z,15.50
2018-08-11T00:56:48.795Z,15.40
2018-08-11T00:59:16.635Z,15.40
2018-08-11T01:01:44.507Z,15.60
2018-08-11T01:04:12.434Z,15.70
2018-08-11T01:06:40.411Z,15.70
2018-08-11T01:09:10.164Z,15.70
2018-08-11T01:11:38.102Z,15.70
2018-08-11T01:14:06.033Z,15.50
2018-08-11T01:16:33.958Z,15.70
2018-08-11T01:19:01.803Z,15.70
2018-08-11T01:21:29.720Z,15.90
2018-08-11T01:23:57.577Z,15.90
2018-08-11T01:26:25.473Z,16.00
2018-08-11T01:28:53.287Z,16.00
2018-08-11T01:31:21.219Z,16.20
2018-08-11T01:33:49.039Z,16.10
2018-08-11T01:36:16.863Z,16.30
2018-08-11T01:38:44.743Z,16.40
2018-08-11T01:41:12.533Z,16.50
2018-08-11T01:43:40.419Z,16.50
2018-08-11T01:46:08.176Z,16.70
2018-08-11T01:48:35.948Z,16.60
2018-08-11T01:51:03.791Z,16.50
2018-08-11T01:53:31.652Z,16.40
2018-08-11T01:55:59.427Z,16.40
2018-08-11T01:58:27.380Z,16.50
2018-08-11T02:00:55.238Z,16.50
2018-08-11T02:03:23.148Z,16.60
2018-08-11T02:05:51.076Z,16.50
2018-08-11T02:08:18.997Z,16.50
2018-08-11T02:10:46.817Z,16.60
2018-08-11T02:13:14.768Z,16.70
2018-08-11T02:15:42.599Z,16.70
2018-08-11T02:18:10.532Z,16.70
2018-08-11T02:20:38.436Z,16.60
2018-08-11T02:23:06.324Z,16.70
2018-08-11T02:25:34.256Z,16.60
2018-08-11T02:28:02.099Z,16.60
2018-08-11T02:30:29.973Z,16.60
2018-08-11T02:32:57.861Z,16.60
2018-08-11T02:35:25.680Z,16.60
2018-08-11T02:37:53.526Z,16.60
2018-08-11T02:40:21.456Z,16.60
2018-08-11T02:42:49.310Z,16.60
2018-08-11T02:45:17.429Z,16.60
2018-08-11T02:47:46.295Z,16.60
2018-08-11T02:50:14.115Z,16.60
2018-08-11T02:52:42.356Z,16.60
2018-08-11T02:55:10.527Z,16.60
2018-08-11T02:57:38.367Z,16.60
2018-08-11T03:00:08.645Z,16.60
2018-08-11T03:02:36.857Z,16.50
2018-08-11T03:05:04.880Z,16.50
2018-08-11T03:07:32.972Z,16.50
2018-08-11T03:10:00.885Z,16.60
2018-08-11T03:12:28.765Z,16.60
2018-08-11T03:14:56.652Z,16.60
2018-08-11T03:17:24.476Z,16.50
2018-08-11T03:19:52.297Z,16.50
2018-08-11T03:22:20.137Z,16.50
2018-08-11T03:24:48.099Z,16.50
2018-08-11T03:27:15.955Z,16.50
2018-08-11T03:29:43.829Z,16.60
2018-08-11T03:32:11.648Z,16.50
2018-08-11T03:34:39.460Z,16.50
2018-08-11T03:37:07.319Z,16.50
2018-08-11T03:39:35.224Z,16.50
2018-08-11T03:42:03.112Z,16.40
2018-08-11T03:44:30.929Z,16.30
2018-08-11T03:46:58.816Z,16.40
2018-08-11T03:49:29.034Z,16.50
2018-08-11T03:51:56.851Z,16.60
2018-08-11T03:54:24.692Z,16.60
2018-08-11T03:56:52.550Z,16.60
2018-08-11T03:59:21.889Z,16.60
2018-08-11T04:01:49.789Z,16.70
2018-08-11T04:04:17.569Z,16.70
2018-08-11T04:06:45.504Z,16.70
2018-08-11T04:09:13.283Z,16.70
2018-08-11T04:11:41.160Z,16.70
2018-08-11T04:14:09.034Z,16.70
2018-08-11T04:16:37.080Z,16.80
2018-08-11T04:19:05.016Z,16.80
2018-08-11T04:21:32.845Z,16.70
2018-08-11T04:24:00.712Z,16.80
2018-08-11T04:26:28.632Z,16.80
2018-08-11T04:28:56.508Z,16.80
2018-08-11T04:31:24.377Z,16.80
2018-08-11T04:33:52.194Z,16.80
2018-08-11T04:36:20.269Z,16.80
2018-08-11T04:38:48.091Z,16.80
2018-08-11T04:41:15.939Z,16.80
2018-08-11T04:43:43.966Z,16.80
2018-08-11T04:46:11.795Z,16.70
2018-08-11T04:48:39.628Z,16.70
2018-08-11T04:51:07.579Z,16.70
2018-08-11T04:53:35.747Z,16.70
2018-08-11T04:56:03.576Z,16.70
2018-08-11T04:58:31.375Z,16.60
2018-08-11T05:00:59.264Z,16.60
2018-08-11T05:03:27.103Z,16.60
2018-08-11T05:05:54.856Z,16.60
2018-08-11T05:08:22.645Z,16.70
2018-08-11T05:10:50.459Z,16.70
2018-08-11T05:13:18.222Z,16.60
2018-08-11T05:15:46.100Z,16.60
2018-08-11T05:18:13.915Z,16.60
2018-08-11T05:20:41.835Z,16.70
2018-08-11T05:23:09.675Z,16.80
2018-08-11T05:25:37.480Z,16.90
2018-08-11T05:28:06.047Z,16.90
2018-08-11T05:30:33.860Z,16.90
2018-08-11T05:33:01.683Z,17.00
2018-08-11T05:35:29.483Z,17.10
2018-08-11T05:37:57.287Z,17.20
2018-08-11T05:40:25.160Z,17.40
2018-08-11T05:42:53.235Z,17.50
2018-08-11T05:45:21.026Z,17.70
2018-08-11T05:47:48.829Z,17.80
2018-08-11T05:50:16.683Z,17.80
2018-08-11T05:52:44.503Z,18.20
2018-08-11T05:55:12.336Z,18.40
2018-08-11T05:57:40.183Z,18.30
2018-08-11T06:00:09.484Z,18.20
2018-08-11T06:02:37.528Z,18.20
2018-08-11T06:05:05.765Z,18.40
2018-08-11T06:07:33.659Z,18.50
2018-08-11T06:10:01.459Z,18.40
2018-08-11T06:12:29.318Z,18.30
2018-08-11T06:14:57.203Z,18.40
2018-08-11T06:17:25.075Z,18.30
2018-08-11T06:19:52.833Z,18.70
2018-08-11T06:22:20.650Z,19.00
2018-08-11T06:24:48.425Z,19.00
2018-08-11T06:27:16.263Z,19.10
2018-08-11T06:29:44.043Z,19.10
2018-08-11T06:32:11.982Z,19.10
2018-08-11T06:34:39.824Z,19.60
2018-08-11T06:37:07.609Z,19.30
2018-08-11T06:39:35.481Z,19.20
2018-08-11T06:42:03.297Z,18.80
2018-08-11T06:44:31.242Z,18.20
2018-08-11T06:46:59.114Z,18.00
2018-08-11T06:49:26.894Z,17.50
2018-08-11T06:51:54.643Z,17.30
2018-08-11T06:54:22.428Z,17.10
2018-08-11T06:56:50.406Z,17.00
2018-08-11T06:59:18.207Z,17.00
2018-08-11T07:01:46.041Z,16.90
2018-08-11T07:04:13.843Z,17.00
2018-08-11T07:06:41.747Z,17.00
2018-08-11T07:09:10.261Z,17.00
2018-08-11T07:11:38.473Z,17.00
2018-08-11T07:14:06.370Z,17.30
2018-08-11T07:16:34.164Z,17.40
2018-08-11T07:19:01.955Z,17.30
2018-08-11T07:21:29.828Z,17.10
2018-08-11T07:23:57.654Z,17.30
2018-08-11T07:26:25.486Z,17.30
2018-08-11T07:28:53.346Z,17.30
2018-08-11T07:31:21.187Z,17.50
2018-08-11T07:33:49.000Z,17.70
2018-08-11T07:36:16.911Z,17.90
2018-08-11T07:38:44.703Z,18.10
2018-08-11T07:41:12.537Z,17.80
2018-08-11T07:43:40.407Z,17.70
2018-08-11T07:46:08.248Z,18.10
2018-08-11T07:48:36.097Z,18.00
2018-08-11T07:51:03.912Z,18.10
2018-08-11T07:53:31.675Z,18.10
2018-08-11T07:55:59.534Z,18.10
2018-08-11T07:58:27.327Z,18.10
2018-08-11T08:00:55.538Z,18.20
2018-08-11T08:03:23.510Z,18.20
2018-08-11T08:05:51.431Z,18.20
2018-08-11T08:08:19.330Z,18.20
2018-08-11T08:10:47.905Z,18.30
2018-08-11T08:13:15.779Z,18.40
2018-08-11T08:15:43.647Z,18.70
2018-08-11T08:18:11.556Z,18.80
2018-08-11T08:20:39.332Z,18.70
2018-08-11T08:23:07.161Z,18.70
2018-08-11T08:25:35.224Z,18.90
2018-08-11T08:28:03.043Z,19.20
2018-08-11T08:30:30.932Z,19.80
2018-08-11T08:32:58.803Z,20.30
2018-08-11T08:35:26.591Z,20.60
2018-08-11T08:37:54.416Z,20.70
2018-08-11T08:40:22.305Z,20.30
2018-08-11T08:42:50.106Z,20.20
2018-08-11T08:45:17.951Z,20.20
2018-08-11T08:47:45.743Z,20.00
2018-08-11T08:50:13.604Z,20.00
2018-08-11T08:52:41.446Z,20.10
2018-08-11T08:55:09.271Z,20.00
2018-08-11T08:57:37.123Z,20.10
2018-08-11T09:00:05.456Z,20.30
2018-08-11T09:02:33.320Z,20.50
2018-08-11T09:05:01.139Z,20.50
2018-08-11T09:07:28.956Z,20.50
2018-08-11T09:09:56.751Z,20.40
2018-08-11T09:12:24.663Z,20.40
2018-08-11T09:14:52.523Z,20.40
2018-08-11T09:17:20.356Z,20.50
2018-08-11T09:19:48.101Z,20.40
2018-08-11T09:22:15.966Z,20.40
2018-08-11T09:24:43.816Z,20.70
2018-08-11T09:27:11.626Z,20.90
2018-08-11T09:29:39.478Z,21.00
2018-08-11T09:32:07.345Z,21.00
2018-08-11T09:34:35.247Z,21.30
2018-08-11T09:37:02.991Z,21.50
2018-08-11T09:39:30.771Z,21.70
2018-08-11T09:41:58.556Z,21.90
2018-08-11T09:44:26.366Z,22.20
2018-08-11T09:46:54.154Z,22.20
2018-08-11T09:49:21.933Z,22.50
2018-08-11T09:51:49.779Z,22.90
2018-08-11T09:54:17.594Z,23.10
2018-08-11T09:56:45.430Z,23.30
2018-08-11T09:59:13.265Z,23.40
2018-08-11T10:01:41.823Z,23.40
2018-08-11T10:04:09.787Z,23.40
2018-08-11T10:06:37.631Z,23.20
2018-08-11T10:09:09.063Z,23.30
2018-08-11T10:11:36.847Z,23.70
2018-08-11T10:14:05.084Z,24.40
2018-08-11T10:16:32.866Z,24.30
2018-08-11T10:19:00.739Z,24.00
2018-08-11T10:21:28.509Z,24.00
2018-08-11T10:23:56.422Z,24.10
2018-08-11T10:26:24.279Z,23.90
2018-08-11T10:28:52.100Z,23.10
2018-08-11T10:31:19.907Z,23.40
2018-08-11T10:33:47.780Z,23.40
2018-08-11T10:36:15.608Z,23.70
2018-08-11T10:38:43.467Z,23.30
2018-08-11T10:41:11.364Z,23.40
2018-08-11T10:43:39.275Z,23.70
2018-08-11T10:46:07.048Z,23.90
2018-08-11T10:48:34.867Z,23.70
2018-08-11T10:51:02.646Z,23.30
2018-08-11T10:53:30.467Z,23.00
2018-08-11T10:55:58.264Z,23.20
2018-08-11T10:58:26.023Z,24.20
2018-08-11T11:00:53.787Z,24.50
2018-08-11T11:03:21.616Z,25.20
2018-08-11T11:05:49.427Z,25.90
2018-08-11T11:08:17.310Z,26.40
2018-08-11T11:10:45.050Z,27.10
2018-08-11T11:13:12.862Z,27.40
2018-08-11T11:15:40.623Z,27.70
2018-08-11T11:18:08.383Z,27.90
2018-08-11T11:20:36.215Z,26.80
2018-08-11T11:23:04.232Z,26.10
2018-08-11T11:25:31.931Z,25.50
2018-08-11T11:27:59.771Z,26.50
2018-08-11T11:30:27.674Z,27.60
2018-08-11T11:32:55.459Z,27.90
2018-08-11T11:35:23.256Z,28.00
2018-08-11T11:37:51.103Z,29.00
2018-08-11T11:40:18.907Z,29.00
2018-08-11T11:42:46.724Z,27.90
2018-08-11T11:45:14.601Z,27.90
2018-08-11T11:47:42.439Z,27.10
2018-08-11T11:50:10.236Z,26.80
2018-08-11T11:52:38.018Z,27.80
2018-08-11T11:55:05.931Z,29.10
2018-08-11T11:57:33.667Z,29.70
2018-08-11T12:00:01.450Z,30.50
2018-08-11T12:02:29.283Z,29.00
2018-08-11T12:04:57.059Z,29.20
2018-08-11T12:07:24.823Z,29.60
2018-08-11T12:09:52.631Z,29.40
2018-08-11T12:12:20.439Z,30.10
2018-08-11T12:14:48.243Z,30.60
2018-08-11T12:17:16.068Z,30.20
2018-08-11T12:19:43.908Z,29.50
2018-08-11T12:22:11.723Z,29.60
2018-08-11T12:24:39.516Z,31.10
2018-08-11T12:27:07.423Z,31.30
2018-08-11T12:29:35.285Z,31.00
2018-08-11T12:32:03.109Z,31.70
2018-08-11T12:34:30.885Z,31.90
2018-08-11T12:36:58.647Z,31.30
2018-08-11T12:39:26.555Z,31.50
2018-08-11T12:41:54.390Z,31.20
2018-08-11T12:44:22.223Z,30.30
2018-08-11T12:46:50.062Z,30.20
2018-08-11T12:49:17.875Z,31.20
2018-08-11T12:51:45.717Z,31.70
2018-08-11T12:54:13.576Z,31.90
2018-08-11T12:56:41.427Z,31.00
2018-08-11T12:59:09.195Z,31.30
2018-08-11T13:01:37.256Z,31.90
2018-08-11T13:04:05.229Z,32.60
2018-08-11T13:06:33.019Z,31.30
2018-08-11T13:09:00.833Z,29.10
2018-08-11T13:11:28.728Z,30.10
2018-08-11T13:13:56.636Z,31.00
2018-08-11T13:16:24.419Z,30.70
2018-08-11T13:18:52.464Z,30.50
2018-08-11T13:21:20.329Z,31.10
2018-08-11T13:23:48.151Z,30.20
2018-08-11T13:26:16.079Z,29.40
2018-08-11T13:28:43.971Z,29.10
2018-08-11T13:31:11.783Z,27.90
2018-08-11T13:33:39.623Z,28.00
2018-08-11T13:36:07.411Z,28.00
2018-08-11T13:38:35.309Z,28.70
2018-08-11T13:41:03.182Z,29.70
2018-08-11T13:43:31.055Z,29.40
2018-08-11T13:45:58.919Z,28.00
2018-08-11T13:48:26.667Z,28.50
2018-08-11T13:50:54.412Z,28.60
2018-08-11T13:53:22.199Z,29.00
2018-08-11T13:55:53.351Z,29.00
2018-08-11T13:58:21.147Z,28.70
2018-08-11T14:00:52.021Z,28.60
2018-08-11T14:03:19.848Z,28.30
2018-08-11T14:05:51.103Z,28.00
2018-08-11T14:08:19.240Z,27.70
2018-08-11T14:10:47.004Z,27.40
2018-08-11T14:13:15.020Z,27.10
2018-08-11T14:15:42.767Z,27.20
2018-08-11T14:18:18.037Z,27.20
2018-08-11T14:20:46.000Z,26.80
2018-08-11T14:23:13.831Z,27.00
2018-08-11T14:25:41.658Z,27.10
2018-08-11T14:28:09.473Z,27.00
2018-08-11T14:30:37.344Z,26.50
2018-08-11T14:33:05.168Z,26.20
2018-08-11T14:35:32.980Z,26.20
2018-08-11T14:38:00.800Z,26.30
2018-08-11T14:40:28.619Z,26.50
2018-08-11T14:42:56.403Z,26.50
2018-08-11T14:45:24.179Z,26.50
2018-08-11T14:47:52.045Z,26.00
2018-08-11T14:50:19.702Z,26.20
2018-08-11T14:52:47.547Z,26.10
2018-08-11T14:55:15.457Z,26.50
2018-08-11T14:57:43.235Z,26.40
2018-08-11T15:00:12.680Z,26.70
2018-08-11T15:02:40.927Z,26.70
2018-08-11T15:05:09.320Z,26.30
2018-08-11T15:07:37.593Z,26.30
2018-08-11T15:10:06.314Z,26.30
2018-08-11T15:12:34.219Z,25.70
2018-08-11T15:15:02.049Z,25.70
2018-08-11T15:17:29.888Z,25.90
2018-08-11T15:19:57.687Z,26.10
2018-08-11T15:22:25.518Z,25.20
2018-08-11T15:24:53.316Z,25.20
2018-08-11T15:27:21.185Z,25.10
2018-08-11T15:29:49.095Z,25.10
2018-08-11T15:32:16.931Z,24.80
2018-08-11T15:34:44.688Z,25.20
2018-08-11T15:37:12.476Z,25.40
2018-08-11T15:39:40.333Z,25.50
2018-08-11T15:42:08.063Z,25.80
2018-08-11T15:44:35.943Z,25.80
2018-08-11T15:47:03.968Z,25.90
2018-08-11T15:49:31.763Z,25.90
2018-08-11T15:51:59.631Z,25.80
2018-08-11T15:54:27.497Z,26.00
2018-08-11T15:56:55.280Z,26.20
2018-08-11T15:59:23.137Z,25.80
2018-08-11T16:01:51.008Z,25.70
2018-08-11T16:04:18.790Z,25.30
2018-08-11T16:06:46.648Z,25.10
2018-08-11T16:09:14.452Z,25.30
2018-08-11T16:11:42.200Z,25.60
2018-08-11T16:14:10.056Z,25.10
2018-08-11T16:16:37.843Z,25.30
2018-08-11T16:19:05.746Z,25.50
2018-08-11T16:21:33.547Z,25.40
2018-08-11T16:24:01.415Z,25.30
2018-08-11T16:26:29.185Z,25.10
2018-08-11T16:28:56.951Z,24.80
2018-08-11T16:31:24.951Z,24.80
2018-08-11T16:33:52.921Z,24.70
2018-08-11T16:36:20.718Z,24.60
2018-08-11T16:38:48.551Z,24.70
2018-08-11T16:41:16.475Z,24.80
2018-08-11T16:43:44.270Z,24.90
2018-08-11T16:46:12.038Z,24.90
2018-08-11T16:48:39.867Z,25.00
2018-08-11T16:51:07.743Z,24.90
2018-08-11T16:53:35.574Z,24.90
2018-08-11T16:56:03.447Z,24.90
2018-08-11T16:58:31.305Z,24.80
2018-08-11T17:00:59.200Z,24.80
2018-08-11T17:03:27.011Z,24.80
2018-08-11T17:05:54.936Z,24.70
2018-08-11T17:08:22.659Z,24.70
2018-08-11T17:10:50.642Z,24.60
2018-08-11T17:13:18.395Z,24.50
2018-08-11T17:15:46.260Z,24.50
2018-08-11T17:18:14.195Z,24.40
2018-08-11T17:20:42.010Z,24.30
2018-08-11T17:23:09.799Z,24.20
2018-08-11T17:25:37.716Z,24.10
2018-08-11T17:28:05.692Z,24.10
2018-08-11T17:30:33.579Z,24.00
2018-08-11T17:33:01.356Z,23.90
2018-08-11T17:35:29.168Z,23.80
2018-08-11T17:37:56.995Z,23.80
2018-08-11T17:40:24.842Z,23.70
2018-08-11T17:42:52.670Z,23.60
2018-08-11T17:45:20.565Z,23.50
2018-08-11T17:47:48.403Z,23.40
2018-08-11T17:50:16.280Z,23.40
2018-08-11T17:52:44.084Z,23.30
2018-08-11T17:55:11.956Z,23.20
2018-08-11T17:57:39.764Z,23.10
2018-08-11T18:00:07.672Z,23.10
2018-08-11T18:02:35.511Z,23.10
2018-08-11T18:05:03.852Z,23.00
2018-08-11T18:07:32.209Z,22.90
2018-08-11T18:10:00.040Z,22.90
2018-08-11T18:12:27.859Z,22.90
2018-08-11T18:14:55.647Z,22.80
2018-08-11T18:17:23.398Z,22.80
2018-08-11T18:19:51.298Z,22.70
2018-08-11T18:22:19.011Z,22.60
2018-08-11T18:24:46.916Z,22.60
2018-08-11T18:27:14.715Z,22.60
2018-08-11T18:29:42.574Z,22.60
2018-08-11T18:32:10.439Z,22.50
2018-08-11T18:34:38.331Z,22.50
2018-08-11T18:37:06.151Z,22.50
2018-08-11T18:39:33.927Z,22.30
2018-08-11T18:42:01.759Z,22.20
2018-08-11T18:44:29.532Z,22.20
2018-08-11T18:46:57.383Z,22.00
2018-08-11T18:49:25.360Z,21.90
2018-08-11T18:51:53.172Z,21.80
2018-08-11T18:54:20.991Z,21.70
2018-08-11T18:56:48.874Z,21.60
2018-08-11T18:59:16.722Z,21.60
2018-08-11T19:01:44.575Z,21.50
2018-08-11T19:04:12.558Z,21.30
2018-08-11T19:06:40.511Z,21.10
2018-08-11T19:09:10.607Z,21.00
2018-08-11T19:11:38.487Z,20.90
2018-08-11T19:14:06.859Z,20.90
2018-08-11T19:16:34.639Z,20.70
2018-08-11T19:19:02.475Z,20.60
2018-08-11T19:21:30.255Z,20.50
2018-08-11T19:23:58.041Z,20.40
2018-08-11T19:26:25.871Z,20.30
2018-08-11T19:28:53.803Z,20.30
2018-08-11T19:31:21.635Z,20.20
2018-08-11T19:33:49.517Z,20.00
2018-08-11T19:36:16.831Z,19.80
2018-08-11T19:38:44.746Z,19.70
2018-08-11T19:41:12.675Z,19.50
2018-08-11T19:43:40.503Z,19.30
2018-08-11T19:46:08.581Z,19.20
2018-08-11T19:48:36.428Z,19.10
2018-08-11T19:51:04.897Z,19.00
2018-08-11T19:53:32.761Z,18.90
2018-08-11T19:56:00.708Z,18.90
2018-08-11T19:58:28.491Z,18.80
2018-08-11T20:00:56.328Z,18.70
2018-08-11T20:03:24.255Z,18.60
2018-08-11T20:05:52.123Z,18.50
2018-08-11T20:08:19.881Z,18.50
2018-08-11T20:10:47.753Z,18.30
2018-08-11T20:13:16.460Z,18.20
2018-08-11T20:15:44.241Z,18.10
2018-08-11T20:18:12.132Z,18.00
2018-08-11T20:20:40.003Z,17.90
2018-08-11T20:23:07.953Z,17.90
2018-08-11T20:25:35.985Z,17.80
2018-08-11T20:28:03.640Z,17.80
2018-08-11T20:30:31.666Z,17.70
2018-08-11T20:32:59.513Z,17.60
2018-08-11T20:35:27.554Z,17.70
2018-08-11T20:37:55.455Z,17.80
2018-08-11T20:40:23.391Z,17.90
2018-08-11T20:42:51.298Z,17.80
2018-08-11T20:45:19.155Z,17.60
2018-08-11T20:47:47.134Z,17.40
2018-08-11T20:50:15.170Z,17.20
2018-08-11T20:52:43.044Z,17.10
2018-08-11T20:55:10.967Z,17.00
2018-08-11T20:57:38.958Z,16.90
2018-08-11T21:00:10.688Z,16.90
2018-08-11T21:02:38.439Z,17.10
2018-08-11T21:05:10.012Z,17.10
2018-08-11T21:07:38.471Z,17.00
2018-08-11T21:10:09.357Z,16.80
2018-08-11T21:12:37.403Z,16.60
2018-08-11T21:15:06.412Z,16.60
2018-08-11T21:17:34.195Z,16.80
2018-08-11T21:20:02.072Z,16.60
2018-08-11T21:22:29.916Z,16.50
2018-08-11T21:24:57.747Z,16.30
2018-08-11T21:27:25.661Z,16.30
2018-08-11T21:29:53.446Z,16.30
2018-08-11T21:32:21.315Z,16.20
2018-08-11T21:34:49.644Z,16.10
2018-08-11T21:37:17.553Z,16.00
2018-08-11T21:39:45.356Z,16.00
2018-08-11T21:42:13.191Z,16.10
2018-08-11T21:44:41.165Z,16.20
2018-08-11T21:47:09.099Z,16.20
2018-08-11T21:49:36.959Z,16.20
2018-08-11T21:52:04.968Z,16.00
2018-08-11T21:54:32.806Z,15.90
2018-08-11T21:57:00.625Z,15.80
2018-08-11T21:59:28.448Z,15.60
2018-08-11T22:01:56.367Z,15.60
2018-08-11T22:04:28.811Z,15.50
2018-08-11T22:06:56.695Z,15.40
2018-08-11T22:09:24.569Z,15.30
2018-08-11T22:11:52.421Z,15.30
2018-08-11T22:14:20.292Z,15.20
2018-08-11T22:16:48.121Z,15.20
2018-08-11T22:19:16.043Z,15.20
2018-08-11T22:21:43.888Z,15.10
2018-08-11T22:24:11.759Z,15.10
2018-08-11T22:26:39.610Z,15.00
2018-08-11T22:29:07.522Z,15.00
2018-08-11T22:31:35.459Z,15.00
2018-08-11T22:34:03.300Z,15.00
2018-08-11T22:36:31.105Z,14.90
2018-08-11T22:38:58.922Z,15.10
2018-08-11T22:41:26.744Z,15.00
2018-08-11T22:43:54.630Z,15.20
2018-08-11T22:46:22.499Z,15.00
2018-08-11T22:48:50.452Z,15.00
2018-08-11T22:51:18.889Z,15.00
2018-08-11T22:53:46.762Z,14.90
2018-08-11T22:56:14.578Z,14.80
2018-08-11T22:58:42.531Z,14.80
2018-08-11T23:01:10.289Z,14.80
2018-08-11T23:03:38.238Z,14.60
2018-08-11T23:06:06.160Z,14.50
2018-08-11T23:08:34.019Z,14.40
2018-08-11T23:11:01.854Z,14.40
2018-08-11T23:13:29.672Z,14.50
2018-08-11T23:15:57.569Z,14.50
2018-08-11T23:18:25.507Z,14.60
2018-08-11T23:20:53.335Z,14.60
2018-08-11T23:23:21.173Z,14.60
2018-08-11T23:25:49.010Z,14.50
2018-08-11T23:28:16.878Z,14.40
2018-08-11T23:30:44.751Z,14.30
2018-08-11T23:33:12.648Z,14.30
2018-08-11T23:35:40.503Z,14.20
2018-08-11T23:38:08.457Z,14.30
2018-08-11T23:40:36.395Z,14.30
2018-08-11T23:43:04.316Z,14.20
2018-08-11T23:45:32.233Z,14.20
2018-08-11T23:48:00.136Z,14.30
2018-08-11T23:50:28.008Z,14.20
2018-08-11T23:52:55.932Z,14.10
2018-08-11T23:55:23.795Z,14.10
2018-08-11T23:57:51.607Z,14.10
